Time;durP1;ratioP1;P1;durP2;ratioP2;P2;SDS_P1;SDS_P2;PMS_P1;PMS_P2;Temp;Humidity;BMP_temperature;BMP_pressure;BME280_temperature;BME280_humidity;BME280_pressure;Samples;Min_cycle;Max_cycle;Signal;HPM_P1;HPM_P2
2023/07/18 00:01:34;;;;;;;56.97;2.43;;;;;;;;;;4995222;28;20492;-71
2023/07/18 00:04:03;;;;;;;56.87;2.20;;;;;;;;;;4995383;28;20497;-70
2023/07/18 00:06:30;;;;;;;57.03;2.30;;;;;;;;;;4995151;28;20553;-71
2023/07/18 00:08:57;;;;;;;57.17;2.40;;;;;;;;;;4995193;28;20459;-71
2023/07/18 00:11:25;;;;;;;56.93;2.33;;;;;;;;;;4994808;28;20475;-71
2023/07/18 00:13:52;;;;;;;57.00;2.30;;;;;;;;;;4995305;28;20449;-70
2023/07/18 00:16:19;;;;;;;57.00;2.50;;;;;;;;;;4994815;28;20466;-71
2023/07/18 00:18:46;;;;;;;56.87;2.43;;;;;;;;;;4995182;28;20459;-71
2023/07/18 00:21:15;;;;;;;57.40;2.37;;;;;;;;;;4994646;28;20475;-71
2023/07/18 00:23:43;;;;;;;58.10;2.57;;;;;;;;;;4994762;28;20486;-71
2023/07/18 00:26:10;;;;;;;57.10;2.13;;;;;;;;;;4995097;28;20458;-71
2023/07/18 00:28:37;;;;;;;56.77;2.07;;;;;;;;;;4994842;28;20450;-71
2023/07/18 00:31:05;;;;;;;57.17;2.53;;;;;;;;;;4994597;28;20474;-71
2023/07/18 00:33:32;;;;;;;57.17;2.20;;;;;;;;;;4994850;28;20447;-71
2023/07/18 00:35:59;;;;;;;57.10;2.50;;;;;;;;;;4994735;28;20463;-71
2023/07/18 00:38:27;;;;;;;57.07;2.50;;;;;;;;;;4994676;28;20951;-71
2023/07/18 00:40:54;;;;;;;57.13;2.40;;;;;;;;;;4994434;28;20478;-70
2023/07/18 00:43:21;;;;;;;57.10;2.50;;;;;;;;;;4994372;28;20486;-71
2023/07/18 00:45:51;;;;;;;56.97;2.47;;;;;;;;;;4994574;28;20443;-70
2023/07/18 00:48:18;;;;;;;57.10;2.40;;;;;;;;;;4994555;28;20450;-71
2023/07/18 00:50:45;;;;;;;56.87;2.30;;;;;;;;;;4994146;28;20446;-71
2023/07/18 00:53:13;;;;;;;57.17;2.40;;;;;;;;;;4994607;28;20467;-71
2023/07/18 00:55:42;;;;;;;57.00;2.50;;;;;;;;;;4994495;28;20447;-71
2023/07/18 00:58:09;;;;;;;56.77;2.30;;;;;;;;;;4993974;28;20638;-71
2023/07/18 01:00:38;;;;;;;56.53;2.30;;;;;;;;;;4993225;28;20454;-71
2023/07/18 01:03:06;;;;;;;56.87;2.60;;;;;;;;;;4991010;28;20577;-71
2023/07/18 01:05:34;;;;;;;57.03;2.30;;;;;;;;;;4989458;28;20513;-71
2023/07/18 01:08:03;;;;;;;57.10;2.40;;;;;;;;;;4994217;28;20455;-71
2023/07/18 01:10:30;;;;;;;57.70;3.83;;;;;;;;;;4993941;28;20487;-71
2023/07/18 01:12:59;;;;;;;57.00;2.50;;;;;;;;;;4993890;28;20485;-71
2023/07/18 01:15:27;;;;;;;56.97;2.40;;;;;;;;;;4993874;28;21007;-71
2023/07/18 01:17:54;;;;;;;57.00;2.23;;;;;;;;;;4993829;28;20454;-71
2023/07/18 01:20:22;;;;;;;57.13;2.57;;;;;;;;;;4993788;28;20462;-71
2023/07/18 01:22:51;;;;;;;56.87;2.40;;;;;;;;;;4993566;28;20487;-71
2023/07/18 01:25:19;;;;;;;57.03;2.20;;;;;;;;;;4993554;28;20451;-71
2023/07/18 01:27:46;;;;;;;58.27;2.40;;;;;;;;;;4993622;28;20494;-71
2023/07/18 01:30:13;;;;;;;56.87;2.40;;;;;;;;;;4993321;28;20466;-70
2023/07/18 01:32:41;;;;;;;56.83;2.60;;;;;;;;;;4994123;28;20467;-71
2023/07/18 01:35:09;;;;;;;57.17;2.90;;;;;;;;;;4993852;28;20457;-71
2023/07/18 01:37:37;;;;;;;57.03;2.17;;;;;;;;;;4993511;28;20455;-71
2023/07/18 01:40:08;;;;;;;57.03;2.20;;;;;;;;;;4993528;28;20451;-70
2023/07/18 01:42:35;;;;;;;56.93;2.40;;;;;;;;;;4993327;28;20478;-71
2023/07/18 01:45:03;;;;;;;56.90;2.47;;;;;;;;;;4991656;28;20836;-71
2023/07/18 01:47:31;;;;;;;58.43;3.27;;;;;;;;;;4993466;28;20984;-70
2023/07/18 01:49:59;;;;;;;57.07;2.43;;;;;;;;;;4993366;28;20475;-71
2023/07/18 01:52:27;;;;;;;58.77;3.43;;;;;;;;;;4993014;28;20501;-70
2023/07/18 01:54:57;;;;;;;57.03;2.30;;;;;;;;;;4993329;28;20451;-71
2023/07/18 01:57:26;;;;;;;57.00;2.37;;;;;;;;;;4993142;28;20455;-70
2023/07/18 01:59:54;;;;;;;56.87;2.63;;;;;;;;;;4993166;28;20454;-71
2023/07/18 02:02:21;;;;;;;56.97;2.30;;;;;;;;;;4992776;28;20517;-71
2023/07/18 02:04:49;;;;;;;57.30;2.60;;;;;;;;;;4993111;28;20491;-71
2023/07/18 02:07:16;;;;;;;57.70;3.70;;;;;;;;;;4993129;28;20482;-72
2023/07/18 02:09:43;;;;;;;57.47;2.57;;;;;;;;;;4992676;28;20521;-71
2023/07/18 02:12:10;;;;;;;57.07;2.80;;;;;;;;;;4992588;28;20471;-71
2023/07/18 02:14:39;;;;;;;57.07;2.63;;;;;;;;;;4992830;28;21003;-70
2023/07/18 02:17:08;;;;;;;57.20;2.60;;;;;;;;;;4992912;28;20455;-71
2023/07/18 02:19:35;;;;;;;58.10;3.33;;;;;;;;;;4992878;28;20461;-71
2023/07/18 02:22:03;;;;;;;57.20;2.40;;;;;;;;;;4992484;28;20471;-71
2023/07/18 02:24:30;;;;;;;56.90;2.50;;;;;;;;;;4992588;28;20577;-71
2023/07/18 02:26:57;;;;;;;57.10;2.40;;;;;;;;;;4992850;28;20477;-71
2023/07/18 02:29:24;;;;;;;57.20;2.70;;;;;;;;;;4992714;28;20457;-71
2023/07/18 02:31:52;;;;;;;57.00;2.50;;;;;;;;;;4992296;28;21015;-71
2023/07/18 02:34:20;;;;;;;57.13;2.33;;;;;;;;;;4992548;28;20457;-70
2023/07/18 02:36:47;;;;;;;57.07;2.40;;;;;;;;;;4992434;28;20502;-71
2023/07/18 02:39:15;;;;;;;58.20;3.00;;;;;;;;;;4992432;28;20555;-71
2023/07/18 02:41:42;;;;;;;57.10;2.40;;;;;;;;;;4992218;28;20475;-71
2023/07/18 02:44:10;;;;;;;57.00;2.40;;;;;;;;;;4992339;28;20856;-71
2023/07/18 02:46:37;;;;;;;56.87;2.40;;;;;;;;;;4992401;28;20459;-71
2023/07/18 02:49:06;;;;;;;57.00;2.80;;;;;;;;;;4992339;28;20487;-70
2023/07/18 02:51:33;;;;;;;57.20;2.47;;;;;;;;;;4991872;28;20474;-70
2023/07/18 02:54:00;;;;;;;57.17;2.90;;;;;;;;;;4992468;28;20455;-71
2023/07/18 02:56:27;;;;;;;56.90;2.30;;;;;;;;;;4992243;28;20447;-71
2023/07/18 02:58:54;;;;;;;56.97;2.50;;;;;;;;;;4992048;28;20447;-71
2023/07/18 03:01:21;;;;;;;57.40;3.00;;;;;;;;;;4991929;28;20478;-71
2023/07/18 03:03:48;;;;;;;57.00;2.37;;;;;;;;;;4991313;28;20491;-71
2023/07/18 03:06:17;;;;;;;57.10;2.60;;;;;;;;;;4992047;28;20466;-71
2023/07/18 03:08:44;;;;;;;57.00;2.40;;;;;;;;;;4992060;28;20451;-71
2023/07/18 03:11:11;;;;;;;56.87;2.60;;;;;;;;;;4992160;28;20550;-71
2023/07/18 03:13:39;;;;;;;57.30;2.83;;;;;;;;;;4992111;28;20727;-71
2023/07/18 03:16:07;;;;;;;57.00;2.50;;;;;;;;;;4991963;28;20461;-70
2023/07/18 03:18:34;;;;;;;57.43;3.00;;;;;;;;;;4991941;28;20490;-71
2023/07/18 03:21:01;;;;;;;56.53;2.30;;;;;;;;;;4991567;28;20767;-71
2023/07/18 03:23:29;;;;;;;57.00;2.80;;;;;;;;;;4991291;28;20857;-71
2023/07/18 03:25:56;;;;;;;58.10;3.67;;;;;;;;;;4991869;28;20451;-71
2023/07/18 03:28:23;;;;;;;58.03;4.10;;;;;;;;;;4991764;28;20455;-71
2023/07/18 03:30:51;;;;;;;56.90;2.60;;;;;;;;;;4991439;28;20467;-71
2023/07/18 03:33:18;;;;;;;58.33;3.23;;;;;;;;;;4991715;28;20450;-71
2023/07/18 03:35:45;;;;;;;57.00;2.33;;;;;;;;;;4991920;28;20447;-71
2023/07/18 03:38:13;;;;;;;56.67;2.20;;;;;;;;;;4991864;28;20823;-71
2023/07/18 03:40:41;;;;;;;56.87;2.33;;;;;;;;;;4991546;28;20459;-71
2023/07/18 03:43:08;;;;;;;57.17;2.73;;;;;;;;;;4991417;28;20478;-70
2023/07/18 03:45:35;;;;;;;57.80;3.57;;;;;;;;;;4991567;28;20458;-71
2023/07/18 03:48:02;;;;;;;56.77;2.60;;;;;;;;;;4991765;28;20831;-71
2023/07/18 03:50:29;;;;;;;56.87;2.40;;;;;;;;;;4991584;28;20453;-71
2023/07/18 03:52:56;;;;;;;56.97;2.50;;;;;;;;;;4991707;28;20474;-71
2023/07/18 03:55:24;;;;;;;57.00;2.50;;;;;;;;;;4991507;28;20454;-71
2023/07/18 03:57:52;;;;;;;56.77;2.30;;;;;;;;;;4991621;28;20894;-71
2023/07/18 04:00:19;;;;;;;56.67;2.30;;;;;;;;;;4991149;28;20461;-71
2023/07/18 04:02:47;;;;;;;56.83;2.30;;;;;;;;;;4991570;28;20478;-70
2023/07/18 04:05:14;;;;;;;56.67;2.40;;;;;;;;;;4991814;28;20514;-71
2023/07/18 04:07:43;;;;;;;56.97;2.40;;;;;;;;;;4991502;28;20466;-70
2023/07/18 04:10:11;;;;;;;57.97;3.47;;;;;;;;;;4991248;28;20521;-71
2023/07/18 04:12:39;;;;;;;56.97;2.30;;;;;;;;;;4991364;28;20882;-70
2023/07/18 04:15:08;;;;;;;56.77;2.50;;;;;;;;;;4991546;28;20451;-71
2023/07/18 04:17:35;;;;;;;57.00;2.60;;;;;;;;;;4991505;28;20458;-71
2023/07/18 04:20:04;;;;;;;57.00;2.80;;;;;;;;;;4990946;28;20458;-70
2023/07/18 04:22:31;;;;;;;57.00;2.60;;;;;;;;;;4991024;28;20927;-70
2023/07/18 04:24:58;;;;;;;56.97;2.60;;;;;;;;;;4991654;28;20493;-71
2023/07/18 04:27:27;;;;;;;56.70;2.50;;;;;;;;;;4990981;28;20993;-70
2023/07/18 04:29:54;;;;;;;56.73;2.40;;;;;;;;;;4991247;28;21124;-71
2023/07/18 04:32:22;;;;;;;56.70;2.40;;;;;;;;;;4991000;28;20473;-70
2023/07/18 04:34:50;;;;;;;56.70;2.50;;;;;;;;;;4994288;28;20808;-70
2023/07/18 04:37:17;;;;;;;56.93;3.33;;;;;;;;;;4994543;28;20469;-71
2023/07/18 04:39:44;;;;;;;57.60;3.60;;;;;;;;;;4994548;28;20454;-71
2023/07/18 04:42:11;;;;;;;56.67;2.37;;;;;;;;;;4994514;28;20471;-71
2023/07/18 04:44:38;;;;;;;57.03;2.60;;;;;;;;;;4994637;28;20577;-71
2023/07/18 04:47:08;;;;;;;56.90;2.60;;;;;;;;;;4994583;28;20453;-70
2023/07/18 04:49:36;;;;;;;57.67;2.73;;;;;;;;;;4994993;28;20514;-71
2023/07/18 04:52:04;;;;;;;56.93;2.53;;;;;;;;;;4994137;28;20493;-71
2023/07/18 04:54:31;;;;;;;56.87;2.70;;;;;;;;;;4994308;28;21047;-71
2023/07/18 04:56:58;;;;;;;56.70;2.30;;;;;;;;;;4994487;28;20447;-70
2023/07/18 04:59:25;;;;;;;57.70;2.90;;;;;;;;;;4994285;28;20454;-71
2023/07/18 05:01:53;;;;;;;56.77;2.40;;;;;;;;;;4993883;28;20541;-71
2023/07/18 05:04:21;;;;;;;56.97;2.40;;;;;;;;;;4993410;28;20541;-70
2023/07/18 05:06:49;;;;;;;56.80;2.47;;;;;;;;;;4994306;28;20455;-70
2023/07/18 05:09:17;;;;;;;56.63;2.50;;;;;;;;;;4994150;28;20458;-71
2023/07/18 05:11:44;;;;;;;56.67;2.20;;;;;;;;;;4993953;28;20470;-71
2023/07/18 05:14:11;;;;;;;56.97;2.50;;;;;;;;;;4994257;28;20451;-70
2023/07/18 05:16:38;;;;;;;56.70;2.30;;;;;;;;;;4994117;28;20451;-72
2023/07/18 05:19:05;;;;;;;56.67;2.30;;;;;;;;;;4994076;28;20447;-71
2023/07/18 05:21:32;;;;;;;56.90;2.60;;;;;;;;;;4993591;28;20467;-72
2023/07/18 05:24:01;;;;;;;57.00;2.30;;;;;;;;;;4994533;28;20483;-71
2023/07/18 05:26:28;;;;;;;56.73;2.30;;;;;;;;;;4994153;28;20600;-71
2023/07/18 05:28:55;;;;;;;56.80;2.33;;;;;;;;;;4993817;28;20962;-70
2023/07/18 05:31:22;;;;;;;56.77;2.30;;;;;;;;;;4993582;28;20483;-71
2023/07/18 05:33:49;;;;;;;56.67;2.40;;;;;;;;;;4993872;28;20459;-71
2023/07/18 05:36:17;;;;;;;56.87;2.57;;;;;;;;;;4993460;28;20458;-71
2023/07/18 05:38:45;;;;;;;56.63;2.23;;;;;;;;;;4993590;28;20463;-71
2023/07/18 05:41:13;;;;;;;56.80;2.60;;;;;;;;;;4993439;28;20483;-71
2023/07/18 05:43:40;;;;;;;56.67;2.67;;;;;;;;;;4993823;28;20467;-71
2023/07/18 05:46:07;;;;;;;56.60;2.13;;;;;;;;;;4992839;28;20497;-70
2023/07/18 05:48:34;;;;;;;56.83;2.30;;;;;;;;;;4993272;28;20800;-70
2023/07/18 05:51:02;;;;;;;57.00;2.73;;;;;;;;;;4993286;28;20451;-70
2023/07/18 05:53:29;;;;;;;56.47;2.13;;;;;;;;;;4993282;28;20951;-71
2023/07/18 05:55:56;;;;;;;57.70;2.30;;;;;;;;;;4993334;28;20439;-70
2023/07/18 05:58:24;;;;;;;56.47;2.07;;;;;;;;;;4993513;28;20834;-70
2023/07/18 06:00:51;;;;;;;56.50;1.90;;;;;;;;;;4992998;28;20462;-71
2023/07/18 06:03:18;;;;;;;56.80;2.40;;;;;;;;;;4993663;28;20454;-71
2023/07/18 06:05:46;;;;;;;56.47;2.03;;;;;;;;;;4993069;28;20594;-71
2023/07/18 06:08:13;;;;;;;56.70;2.20;;;;;;;;;;4993325;28;20454;-71
2023/07/18 06:10:40;;;;;;;56.77;2.30;;;;;;;;;;4992992;28;20466;-70
2023/07/18 06:13:07;;;;;;;56.70;2.60;;;;;;;;;;4992878;28;20850;-71
2023/07/18 06:15:35;;;;;;;56.50;2.30;;;;;;;;;;4992745;28;20453;-69
2023/07/18 06:18:02;;;;;;;56.70;2.27;;;;;;;;;;4993044;28;20966;-70
2023/07/18 06:20:29;;;;;;;56.70;2.10;;;;;;;;;;4992988;28;20462;-71
2023/07/18 06:22:57;;;;;;;56.27;2.20;;;;;;;;;;4992821;28;20473;-70
2023/07/18 06:25:24;;;;;;;56.57;2.20;;;;;;;;;;4992614;28;20999;-71
2023/07/18 06:27:52;;;;;;;56.60;2.20;;;;;;;;;;4992900;28;20482;-70
2023/07/18 06:30:19;;;;;;;56.70;2.77;;;;;;;;;;4989494;28;20451;-71
2023/07/18 06:32:47;;;;;;;56.37;2.10;;;;;;;;;;4992258;28;20470;-72
2023/07/18 06:35:14;;;;;;;56.97;2.17;;;;;;;;;;4992809;28;20451;-71
2023/07/18 06:37:42;;;;;;;56.87;2.40;;;;;;;;;;4992830;28;20830;-71
2023/07/18 06:40:12;;;;;;;57.00;2.40;;;;;;;;;;4992219;28;20447;-71
2023/07/18 06:42:39;;;;;;;56.90;2.20;;;;;;;;;;4992453;28;20493;-71
2023/07/18 06:45:07;;;;;;;57.40;2.60;;;;;;;;;;4992264;28;20497;-71
2023/07/18 06:47:34;;;;;;;56.47;2.20;;;;;;;;;;4992647;28;20462;-71
2023/07/18 06:50:03;;;;;;;56.47;2.10;;;;;;;;;;4992384;28;20970;-71
2023/07/18 06:52:30;;;;;;;56.47;2.40;;;;;;;;;;4992655;28;20467;-71
2023/07/18 06:54:57;;;;;;;56.60;2.13;;;;;;;;;;4992354;28;20458;-71
2023/07/18 06:57:24;;;;;;;56.57;2.40;;;;;;;;;;4991561;28;20459;-71
2023/07/18 06:59:51;;;;;;;56.53;2.10;;;;;;;;;;4990504;28;20462;-71
2023/07/18 07:02:18;;;;;;;56.63;2.23;;;;;;;;;;4986361;28;20479;-71
2023/07/18 07:04:45;;;;;;;56.60;2.03;;;;;;;;;;4992175;28;20909;-71
2023/07/18 07:07:13;;;;;;;56.47;2.20;;;;;;;;;;4991376;28;20451;-71
2023/07/18 07:09:41;;;;;;;56.80;2.10;;;;;;;;;;4988799;28;20451;-71
2023/07/18 07:12:08;;;;;;;57.40;2.57;;;;;;;;;;4991142;28;20482;-71
2023/07/18 07:14:35;;;;;;;56.77;2.40;;;;;;;;;;4991786;28;20439;-70
2023/07/18 07:17:02;;;;;;;56.10;2.30;;;;;;;;;;4991550;28;20900;-71
2023/07/18 07:19:30;;;;;;;56.63;2.30;;;;;;;;;;4991269;28;20554;-71
2023/07/18 07:21:57;;;;;;;56.90;2.83;;;;;;;;;;4990904;28;20485;-71
2023/07/18 07:24:26;;;;;;;56.37;2.10;;;;;;;;;;4991502;28;20832;-72
2023/07/18 07:26:53;;;;;;;57.00;2.43;;;;;;;;;;4991765;28;20491;-71
2023/07/18 07:29:20;;;;;;;73.43;3.03;;;;;;;;;;4991619;28;20451;-71
2023/07/18 07:31:47;;;;;;;56.50;2.00;;;;;;;;;;4991376;28;20485;-73
2023/07/18 07:34:14;;;;;;;56.67;2.17;;;;;;;;;;4992114;28;20451;-72
2023/07/18 07:36:41;;;;;;;56.20;2.10;;;;;;;;;;4991740;28;20517;-73
2023/07/18 07:39:08;;;;;;;56.67;1.97;;;;;;;;;;4991765;28;20454;-72
2023/07/18 07:41:37;;;;;;;56.33;2.27;;;;;;;;;;4991797;28;20846;-73
2023/07/18 07:44:04;;;;;;;56.67;2.23;;;;;;;;;;4991733;28;20463;-72
2023/07/18 07:46:32;;;;;;;58.20;2.40;;;;;;;;;;4991666;28;20497;-72
2023/07/18 07:48:59;;;;;;;58.73;2.77;;;;;;;;;;4991761;28;20974;-72
2023/07/18 07:51:26;;;;;;;56.17;1.90;;;;;;;;;;4991416;28;20471;-72
2023/07/18 07:53:54;;;;;;;56.43;2.00;;;;;;;;;;4991985;28;20457;-72
2023/07/18 07:56:21;;;;;;;56.57;2.03;;;;;;;;;;4991599;28;20525;-72
2023/07/18 07:58:50;;;;;;;56.70;2.20;;;;;;;;;;4991333;28;20458;-73
2023/07/18 08:01:17;;;;;;;56.80;2.50;;;;;;;;;;4990977;28;20478;-72
2023/07/18 08:03:44;;;;;;;56.40;1.77;;;;;;;;;;4991719;28;20455;-73
2023/07/18 08:06:11;;;;;;;56.17;2.00;;;;;;;;;;4991142;28;20486;-72
2023/07/18 08:08:38;;;;;;;56.30;1.90;;;;;;;;;;4993111;28;20473;-70
2023/07/18 08:11:05;;;;;;;56.37;2.00;;;;;;;;;;4994882;28;20974;-71
2023/07/18 08:13:32;;;;;;;56.33;2.27;;;;;;;;;;4995161;28;20461;-70
2023/07/18 08:16:01;;;;;;;56.60;2.30;;;;;;;;;;4994892;28;20457;-70
2023/07/18 08:18:28;;;;;;;57.10;2.70;;;;;;;;;;4995246;28;20461;-70
2023/07/18 08:20:55;;;;;;;56.70;2.00;;;;;;;;;;4994571;28;20459;-70
2023/07/18 08:23:22;;;;;;;56.87;2.57;;;;;;;;;;4995159;28;20451;-70
2023/07/18 08:25:50;;;;;;;56.47;2.20;;;;;;;;;;4994961;28;20494;-71
2023/07/18 08:28:17;;;;;;;56.43;2.47;;;;;;;;;;4994984;28;20454;-70
2023/07/18 08:30:45;;;;;;;56.30;1.90;;;;;;;;;;4994417;28;20948;-70
2023/07/18 08:33:15;;;;;;;58.50;2.50;;;;;;;;;;4994523;28;20478;-70
2023/07/18 08:35:42;;;;;;;56.07;1.70;;;;;;;;;;4995180;28;20462;-70
2023/07/18 08:38:10;;;;;;;56.47;2.17;;;;;;;;;;4994851;28;20501;-70
2023/07/18 08:40:37;;;;;;;56.37;2.00;;;;;;;;;;4994466;28;20461;-70
2023/07/18 08:43:04;;;;;;;57.00;2.17;;;;;;;;;;4994761;28;20517;-70
2023/07/18 08:45:33;;;;;;;56.37;1.90;;;;;;;;;;4994439;28;20493;-71
2023/07/18 08:48:00;;;;;;;55.97;1.80;;;;;;;;;;4994482;28;20478;-70
2023/07/18 08:50:29;;;;;;;56.03;1.90;;;;;;;;;;4994151;28;20465;-71
2023/07/18 08:52:57;;;;;;;62.47;3.10;;;;;;;;;;4994636;28;20775;-71
2023/07/18 08:55:26;;;;;;;56.47;1.93;;;;;;;;;;4994663;28;20871;-71
2023/07/18 08:57:54;;;;;;;55.87;1.80;;;;;;;;;;4994450;28;20451;-71
2023/07/18 09:00:21;;;;;;;55.97;2.00;;;;;;;;;;4994144;28;20487;-71
2023/07/18 09:02:49;;;;;;;55.73;1.80;;;;;;;;;;4994849;28;20471;-71
2023/07/18 09:05:31;;;;;;;56.07;1.80;;;;;;;;;;4994081;28;20479;-71
2023/07/18 09:07:58;;;;;;;56.27;2.00;;;;;;;;;;4994227;28;20455;-71
2023/07/18 09:10:26;;;;;;;56.80;1.80;;;;;;;;;;4993880;28;20450;-71
2023/07/18 09:12:53;;;;;;;56.17;1.90;;;;;;;;;;4994445;28;20482;-71
2023/07/18 09:15:20;;;;;;;56.53;2.00;;;;;;;;;;4994223;28;20443;-71
2023/07/18 09:17:49;;;;;;;56.23;2.13;;;;;;;;;;4994341;28;20455;-70
2023/07/18 09:20:18;;;;;;;56.17;1.70;;;;;;;;;;4992678;28;20451;-71
2023/07/18 09:22:46;;;;;;;56.70;2.30;;;;;;;;;;4994502;28;20474;-71
2023/07/18 09:25:15;;;;;;;56.30;1.70;;;;;;;;;;4993750;28;20486;-71
2023/07/18 09:27:42;;;;;;;56.07;2.00;;;;;;;;;;4993925;28;20882;-71
2023/07/18 09:30:10;;;;;;;55.87;1.83;;;;;;;;;;4993857;28;20478;-71
2023/07/18 09:32:38;;;;;;;56.30;1.90;;;;;;;;;;4994375;28;20471;-73
2023/07/18 09:35:06;;;;;;;56.17;1.70;;;;;;;;;;4993731;28;20451;-73
2023/07/18 09:37:33;;;;;;;56.47;2.00;;;;;;;;;;4993634;28;20451;-71
2023/07/18 09:40:02;;;;;;;56.37;1.60;;;;;;;;;;4993579;28;20455;-71
2023/07/18 09:42:29;;;;;;;56.23;1.70;;;;;;;;;;4993907;28;20486;-72
2023/07/18 09:44:57;;;;;;;55.97;1.90;;;;;;;;;;4993450;28;20458;-72
2023/07/18 09:47:25;;;;;;;56.10;1.80;;;;;;;;;;4993549;28;20490;-72
2023/07/18 09:49:52;;;;;;;56.50;1.70;;;;;;;;;;4993527;28;20455;-72
2023/07/18 09:52:25;;;;;;;56.50;2.10;;;;;;;;;;4992856;28;20467;-72
2023/07/18 09:54:53;;;;;;;56.40;1.90;;;;;;;;;;4993459;28;20457;-72
2023/07/18 09:57:23;;;;;;;56.50;2.00;;;;;;;;;;4993249;28;20939;-71
2023/07/18 09:59:50;;;;;;;56.43;1.87;;;;;;;;;;4993190;28;20458;-72
2023/07/18 10:02:17;;;;;;;56.17;1.90;;;;;;;;;;4989487;28;20489;-71
2023/07/18 10:04:45;;;;;;;56.20;1.97;;;;;;;;;;4992819;28;20457;-72
2023/07/18 10:07:12;;;;;;;56.70;2.33;;;;;;;;;;4993324;28;20486;-71
2023/07/18 10:09:40;;;;;;;56.40;2.10;;;;;;;;;;4993202;28;20451;-72
2023/07/18 10:12:06;;;;;;;56.47;1.90;;;;;;;;;;4992718;28;20475;-70
2023/07/18 10:14:48;;;;;;;56.80;1.80;;;;;;;;;;4993112;28;20501;-71
2023/07/18 10:17:25;;;;;;;56.17;1.77;;;;;;;;;;4993175;28;20462;-72
2023/07/18 10:19:52;;;;;;;56.50;2.37;;;;;;;;;;4993138;28;20453;-72
2023/07/18 10:22:25;;;;;;;55.97;1.63;;;;;;;;;;4992328;28;20525;-72
2023/07/18 10:24:53;;;;;;;56.10;1.70;;;;;;;;;;4992974;28;20871;-72
2023/07/18 10:27:24;;;;;;;56.50;2.13;;;;;;;;;;4992860;28;20487;-72
2023/07/18 10:30:06;;;;;;;56.00;1.70;;;;;;;;;;4992582;28;20463;-72
2023/07/18 10:32:35;;;;;;;56.27;1.93;;;;;;;;;;4989728;28;20505;-72
2023/07/18 10:35:06;;;;;;;56.30;2.17;;;;;;;;;;4993047;28;20458;-72
2023/07/18 10:37:36;;;;;;;56.30;2.13;;;;;;;;;;4992753;28;20443;-72
2023/07/18 10:40:04;;;;;;;56.93;2.63;;;;;;;;;;4992299;28;20454;-72
2023/07/18 10:42:33;;;;;;;56.50;2.17;;;;;;;;;;4992590;28;20471;-72
2023/07/18 10:45:00;;;;;;;56.20;1.70;;;;;;;;;;4992613;28;20461;-72
2023/07/18 10:47:28;;;;;;;56.67;1.97;;;;;;;;;;4992379;28;20490;-72
2023/07/18 10:49:57;;;;;;;56.13;1.90;;;;;;;;;;4992406;28;20447;-72
2023/07/18 10:52:24;;;;;;;56.17;2.00;;;;;;;;;;4992172;28;20475;-72
2023/07/18 10:54:55;;;;;;;56.27;1.90;;;;;;;;;;4992996;28;20462;-72
2023/07/18 10:57:26;;;;;;;56.40;2.00;;;;;;;;;;4992089;28;20455;-72
2023/07/18 10:59:53;;;;;;;56.50;2.20;;;;;;;;;;4992514;28;20450;-72
2023/07/18 11:02:20;;;;;;;56.50;2.20;;;;;;;;;;4992225;28;20561;-72
2023/07/18 11:04:48;;;;;;;55.77;1.53;;;;;;;;;;4992256;28;20478;-72
2023/07/18 11:07:16;;;;;;;55.90;1.80;;;;;;;;;;4991851;28;20482;-72
2023/07/18 11:09:43;;;;;;;56.00;1.70;;;;;;;;;;4992594;28;20864;-72
2023/07/18 11:12:17;;;;;;;56.00;1.80;;;;;;;;;;4991997;28;20517;-72
2023/07/18 11:14:45;;;;;;;56.30;2.10;;;;;;;;;;4992328;28;20454;-72
2023/07/18 11:17:16;;;;;;;57.80;2.00;;;;;;;;;;4991981;28;20455;-72
2023/07/18 11:19:45;;;;;;;56.33;2.53;;;;;;;;;;4991812;28;21030;-72
2023/07/18 11:22:13;;;;;;;56.10;1.90;;;;;;;;;;4991947;28;21139;-72
2023/07/18 11:24:41;;;;;;;56.70;2.33;;;;;;;;;;4992270;28;20827;-72
2023/07/18 11:27:12;;;;;;;55.87;1.60;;;;;;;;;;4991964;28;20490;-70
2023/07/18 11:29:39;;;;;;;56.70;2.20;;;;;;;;;;4992004;28;20462;-72
2023/07/18 11:32:07;;;;;;;56.10;1.80;;;;;;;;;;4991799;28;20470;-72
2023/07/18 11:34:34;;;;;;;56.17;2.20;;;;;;;;;;4987724;28;20459;-72
2023/07/18 11:37:01;;;;;;;56.10;1.90;;;;;;;;;;4991762;28;20505;-72
2023/07/18 11:39:32;;;;;;;56.40;2.20;;;;;;;;;;4991653;28;20471;-72
2023/07/18 11:42:08;;;;;;;56.70;2.30;;;;;;;;;;4991826;28;20474;-71
2023/07/18 11:44:35;;;;;;;56.10;1.67;;;;;;;;;;4994879;28;20509;-72
2023/07/18 11:47:03;;;;;;;56.20;1.80;;;;;;;;;;4995678;28;20490;-72
2023/07/18 11:49:36;;;;;;;56.80;2.20;;;;;;;;;;4996309;28;20800;-72
2023/07/18 11:52:04;;;;;;;56.30;2.03;;;;;;;;;;4995653;28;20471;-72
2023/07/18 11:54:31;;;;;;;56.67;2.20;;;;;;;;;;4995594;28;20454;-72
2023/07/18 11:56:58;;;;;;;56.37;1.63;;;;;;;;;;4995690;28;20880;-71
2023/07/18 11:59:26;;;;;;;56.40;2.00;;;;;;;;;;4995581;28;20451;-72
2023/07/18 12:01:53;;;;;;;55.83;1.70;;;;;;;;;;4994402;28;20478;-71
2023/07/18 12:04:20;;;;;;;56.47;2.20;;;;;;;;;;4995449;28;20461;-71
2023/07/18 12:06:47;;;;;;;57.90;2.53;;;;;;;;;;4995486;28;20491;-72
2023/07/18 12:09:15;;;;;;;56.07;1.70;;;;;;;;;;4995351;28;20459;-72
2023/07/18 12:11:44;;;;;;;56.07;1.57;;;;;;;;;;4994864;28;20495;-72
2023/07/18 12:14:11;;;;;;;56.03;1.70;;;;;;;;;;4995323;28;21538;-72
2023/07/18 12:16:39;;;;;;;56.17;1.80;;;;;;;;;;4995670;28;20470;-72
2023/07/18 12:19:06;;;;;;;56.23;1.80;;;;;;;;;;4995312;28;20465;-72
2023/07/18 12:21:34;;;;;;;56.17;1.70;;;;;;;;;;4991203;28;20482;-72
2023/07/18 12:24:01;;;;;;;55.80;1.67;;;;;;;;;;4994983;28;20571;-71
2023/07/18 12:26:28;;;;;;;56.37;2.13;;;;;;;;;;4995124;28;20568;-71
2023/07/18 12:28:55;;;;;;;55.90;1.70;;;;;;;;;;4995045;28;20947;-72
2023/07/18 12:31:23;;;;;;;56.10;1.80;;;;;;;;;;4994758;28;20470;-72
2023/07/18 12:33:51;;;;;;;56.10;1.70;;;;;;;;;;4995222;28;20462;-72
2023/07/18 12:36:19;;;;;;;55.77;1.60;;;;;;;;;;4995097;28;20967;-72
2023/07/18 12:38:46;;;;;;;55.97;1.80;;;;;;;;;;4994849;28;20450;-72
2023/07/18 12:41:13;;;;;;;56.07;1.80;;;;;;;;;;4994319;28;20482;-72
2023/07/18 12:43:40;;;;;;;55.87;1.70;;;;;;;;;;4994999;28;20469;-71
2023/07/18 12:46:08;;;;;;;55.93;1.67;;;;;;;;;;4994805;28;20970;-72
2023/07/18 12:48:35;;;;;;;55.77;1.53;;;;;;;;;;4994743;28;20458;-72
2023/07/18 12:51:04;;;;;;;56.20;2.20;;;;;;;;;;4994300;28;20447;-72
2023/07/18 12:53:31;;;;;;;56.20;2.00;;;;;;;;;;4994669;28;20458;-71
2023/07/18 12:55:58;;;;;;;56.10;1.93;;;;;;;;;;4994861;28;20473;-72
2023/07/18 12:58:25;;;;;;;55.67;1.60;;;;;;;;;;4994780;28;20447;-72
2023/07/18 13:00:52;;;;;;;56.37;2.03;;;;;;;;;;4994186;28;20447;-72
2023/07/18 13:03:19;;;;;;;56.10;2.27;;;;;;;;;;4994882;28;20455;-72
2023/07/18 13:05:46;;;;;;;56.00;1.87;;;;;;;;;;4994412;28;20965;-72
2023/07/18 13:08:15;;;;;;;55.97;1.70;;;;;;;;;;4994228;28;20490;-72
2023/07/18 13:10:42;;;;;;;56.03;1.90;;;;;;;;;;4994091;28;20812;-72
2023/07/18 13:13:09;;;;;;;55.87;1.80;;;;;;;;;;4994503;28;20467;-72
2023/07/18 13:15:36;;;;;;;55.90;1.80;;;;;;;;;;4994241;28;20455;-72
2023/07/18 13:18:03;;;;;;;56.93;2.17;;;;;;;;;;4994289;28;20819;-72
2023/07/18 13:20:30;;;;;;;56.77;2.33;;;;;;;;;;4993755;28;20550;-72
2023/07/18 13:22:58;;;;;;;56.20;1.90;;;;;;;;;;4994234;28;20466;-72
2023/07/18 13:25:26;;;;;;;55.80;1.63;;;;;;;;;;4994060;28;20447;-71
2023/07/18 13:27:53;;;;;;;56.40;1.97;;;;;;;;;;4993826;28;20493;-71
2023/07/18 13:30:21;;;;;;;55.97;1.80;;;;;;;;;;4993691;28;20826;-71
2023/07/18 13:32:48;;;;;;;58.73;2.07;;;;;;;;;;4994011;28;20506;-71
2023/07/18 13:35:15;;;;;;;56.10;1.90;;;;;;;;;;4993735;28;20563;-72
2023/07/18 13:37:43;;;;;;;56.40;2.10;;;;;;;;;;4994022;28;20487;-72
2023/07/18 13:40:10;;;;;;;57.27;1.90;;;;;;;;;;4993716;28;20447;-72
2023/07/18 13:42:39;;;;;;;55.73;1.77;;;;;;;;;;4993907;28;20850;-72
2023/07/18 13:45:07;;;;;;;55.67;1.60;;;;;;;;;;4993584;28;20483;-72
2023/07/18 13:47:35;;;;;;;55.80;1.90;;;;;;;;;;4993486;28;20529;-72
2023/07/18 13:50:02;;;;;;;55.67;1.80;;;;;;;;;;4993665;28;20454;-72
2023/07/18 13:52:30;;;;;;;55.63;1.70;;;;;;;;;;4993543;28;20483;-72
2023/07/18 13:54:57;;;;;;;55.57;1.60;;;;;;;;;;4993471;28;20454;-72
2023/07/18 13:57:24;;;;;;;55.27;1.57;;;;;;;;;;4993521;28;20465;-70
2023/07/18 13:59:52;;;;;;;56.20;2.47;;;;;;;;;;4993534;28;20455;-70
2023/07/18 14:02:19;;;;;;;55.97;2.20;;;;;;;;;;4993087;28;20470;-71
2023/07/18 14:04:47;;;;;;;55.30;1.73;;;;;;;;;;4993387;28;20458;-71
2023/07/18 14:07:14;;;;;;;55.77;2.03;;;;;;;;;;4992429;28;20494;-71
2023/07/18 14:09:42;;;;;;;55.43;2.07;;;;;;;;;;4993334;28;20462;-70
2023/07/18 14:12:09;;;;;;;55.40;1.80;;;;;;;;;;4993189;28;20502;-71
2023/07/18 14:14:37;;;;;;;55.77;2.20;;;;;;;;;;4993146;28;20459;-71
2023/07/18 14:17:06;;;;;;;55.70;1.50;;;;;;;;;;4993151;28;20986;-71
2023/07/18 14:19:33;;;;;;;56.00;2.10;;;;;;;;;;4993153;28;20466;-71
2023/07/18 14:22:00;;;;;;;56.03;2.33;;;;;;;;;;4992777;28;20471;-71
2023/07/18 14:24:27;;;;;;;56.10;2.10;;;;;;;;;;4992715;28;20978;-71
2023/07/18 14:26:54;;;;;;;56.30;2.20;;;;;;;;;;4992610;28;20490;-71
2023/07/18 14:29:21;;;;;;;56.17;2.00;;;;;;;;;;4992840;28;20457;-71
2023/07/18 14:31:48;;;;;;;56.77;2.43;;;;;;;;;;4992317;28;20474;-72
2023/07/18 14:34:17;;;;;;;56.00;1.87;;;;;;;;;;4992790;28;20451;-71